Time;durP1;ratioP1;P1;durP2;ratioP2;P2;SDS_P1;SDS_P2;PMS_P1;PMS_P2;Temp;Humidity;BMP_temperature;BMP_pressure;BME280_temperature;BME280_humidity;BME280_pressure;Samples;Min_cycle;Max_cycle;Signal;HPM_P1;HPM_P2
2022/04/28 00:01:54;;;;;;;2.50;1.20;;;20.10;52.60;;;;;;4995952;28;20046;-56
2022/04/28 00:04:19;;;;;;;3.90;1.52;;;20.10;52.70;;;;;;4996775;28;20096;-56
2022/04/28 00:06:45;;;;;;;5.10;1.60;;;20.00;52.50;;;;;;4996455;28;20121;-57
2022/04/28 00:09:10;;;;;;;3.70;1.38;;;20.00;52.50;;;;;;4996029;28;20046;-56
2022/04/28 00:11:36;;;;;;;4.80;1.45;;;20.00;52.50;;;;;;4996637;28;20046;-56
2022/04/28 00:14:01;;;;;;;3.67;1.50;;;20.00;52.50;;;;;;4996462;28;20570;-57
2022/04/28 00:16:27;;;;;;;4.03;1.48;;;20.00;52.50;;;;;;4995699;28;20053;-57
2022/04/28 00:18:53;;;;;;;3.92;1.45;;;20.00;52.40;;;;;;4996306;28;20042;-57
2022/04/28 00:21:18;;;;;;;3.25;1.67;;;20.00;52.40;;;;;;4996337;28;20129;-57
2022/04/28 00:23:44;;;;;;;3.78;1.40;;;20.00;52.40;;;;;;4995142;28;20045;-57
2022/04/28 00:26:10;;;;;;;4.47;1.85;;;20.00;52.30;;;;;;4996356;28;20046;-57
2022/04/28 00:28:35;;;;;;;3.65;1.40;;;20.00;52.30;;;;;;4996489;28;20041;-57
2022/04/28 00:31:01;;;;;;;4.70;1.52;;;20.00;52.30;;;;;;4994992;28;20465;-56
2022/04/28 00:33:27;;;;;;;4.97;1.50;;;20.00;52.20;;;;;;4995878;28;20046;-56
2022/04/28 00:35:53;;;;;;;4.20;1.55;;;19.90;52.20;;;;;;4994990;28;20076;-56
2022/04/28 00:38:19;;;;;;;3.45;1.63;;;19.90;52.20;;;;;;4995942;28;20050;-57
2022/04/28 00:40:44;;;;;;;2.97;1.50;;;19.90;52.20;;;;;;4995937;28;20133;-57
2022/04/28 00:43:19;;;;;;;2.97;1.60;;;19.90;52.10;;;;;;4995413;28;20034;-56
2022/04/28 00:45:48;;;;;;;4.20;1.48;;;19.90;52.10;;;;;;4995607;28;20092;-56
2022/04/28 00:50:59;;;;;;;2.72;1.40;;;19.90;52.10;;;;;;4995012;28;20050;-57
2022/04/28 00:53:25;;;;;;;3.33;1.45;;;19.90;52.10;;;;;;4995723;28;20466;-56
2022/04/28 00:55:50;;;;;;;3.90;2.15;;;19.90;52.00;;;;;;5010327;28;20081;-56
2022/04/28 00:58:15;;;;;;;3.65;1.50;;;19.90;51.90;;;;;;4994938;28;20089;-56
2022/04/28 01:00:41;;;;;;;3.13;1.48;;;19.80;51.90;;;;;;5010032;28;20046;-57
2022/04/28 01:03:07;;;;;;;4.45;1.77;;;19.80;51.90;;;;;;5010935;28;20042;-56
2022/04/28 01:05:32;;;;;;;4.82;1.90;;;19.80;51.90;;;;;;4994793;28;20180;-56
2022/04/28 01:07:58;;;;;;;4.30;1.50;;;19.80;51.80;;;;;;4995290;28;20500;-56
2022/04/28 01:10:23;;;;;;;4.10;1.42;;;19.80;51.70;;;;;;4995674;28;20051;-56
2022/04/28 01:12:49;;;;;;;4.40;1.40;;;19.80;51.70;;;;;;4994589;28;20457;-57
2022/04/28 01:15:15;;;;;;;4.85;1.58;;;19.80;51.60;;;;;;4995883;28;20046;-57
2022/04/28 01:17:40;;;;;;;4.25;1.40;;;19.80;51.60;;;;;;4995022;28;20038;-57
2022/04/28 01:20:08;;;;;;;4.18;1.75;;;19.80;51.60;;;;;;4994663;28;20042;-57
2022/04/28 01:22:33;;;;;;;3.17;1.35;;;19.80;51.60;;;;;;4995306;28;20518;-57
2022/04/28 01:25:07;;;;;;;4.03;1.83;;;19.80;51.50;;;;;;4995162;28;20042;-57
2022/04/28 01:27:33;;;;;;;3.45;1.58;;;19.80;51.50;;;;;;4995254;28;20149;-57
2022/04/28 01:29:59;;;;;;;2.30;1.40;;;19.80;51.50;;;;;;4994939;28;20046;-57
2022/04/28 01:32:25;;;;;;;4.07;1.50;;;19.70;51.40;;;;;;4993986;28;20692;-57
2022/04/28 01:34:51;;;;;;;3.45;1.20;;;19.80;51.50;;;;;;4994713;28;20121;-57
2022/04/28 01:37:16;;;;;;;4.10;1.48;;;19.80;51.40;;;;;;4995010;28;20061;-56
2022/04/28 01:39:42;;;;;;;4.03;1.48;;;19.80;51.40;;;;;;4994014;28;20085;-57
2022/04/28 01:42:08;;;;;;;3.70;1.38;;;19.80;51.40;;;;;;4994909;28;20052;-57
2022/04/28 01:44:33;;;;;;;3.00;1.20;;;19.80;51.40;;;;;;4994853;28;20096;-56
2022/04/28 01:47:00;;;;;;;3.33;1.33;;;19.80;51.40;;;;;;4992641;28;20104;-56
2022/04/28 01:49:25;;;;;;;3.65;1.52;;;19.80;51.40;;;;;;4994575;28;20569;-57
2022/04/28 01:57:19;;;;;;;2.75;1.40;;;19.80;51.30;;;;;;4994423;28;20406;-56
2022/04/28 01:59:44;;;;;;;2.80;1.42;;;19.80;51.40;;;;;;4994377;28;20046;-56
2022/04/28 02:02:10;;;;;;;4.10;1.30;;;19.80;51.20;;;;;;4993651;28;20100;-56
2022/04/28 02:04:35;;;;;;;3.20;1.40;;;19.80;51.10;;;;;;4994193;28;20054;-56
2022/04/28 02:07:01;;;;;;;3.22;1.35;;;19.90;51.20;;;;;;4994043;28;20046;-57
2022/04/28 02:09:26;;;;;;;3.55;1.20;;;19.90;51.20;;;;;;4993829;28;20049;-56
2022/04/28 02:11:52;;;;;;;2.72;1.20;;;19.90;51.20;;;;;;4993543;28;20144;-56
2022/04/28 02:14:17;;;;;;;2.85;1.27;;;19.90;51.20;;;;;;4993742;28;20130;-57
2022/04/28 02:16:43;;;;;;;3.60;1.33;;;19.90;51.30;;;;;;4994041;28;20056;-56
2022/04/28 02:19:08;;;;;;;3.17;1.30;;;19.90;51.20;;;;;;4994499;28;20150;-56
2022/04/28 02:21:34;;;;;;;3.20;1.35;;;19.90;51.20;;;;;;4993449;28;20490;-57
2022/04/28 02:23:59;;;;;;;2.75;1.42;;;19.90;51.20;;;;;;4993945;28;20049;-57
2022/04/28 02:26:25;;;;;;;2.67;1.20;;;19.90;51.20;;;;;;4994148;28;20084;-57
2022/04/28 02:28:50;;;;;;;3.13;1.13;;;20.00;51.20;;;;;;4993084;28;20445;-57
2022/04/28 02:31:16;;;;;;;2.70;1.30;;;19.90;51.10;;;;;;4994054;28;20042;-57
2022/04/28 02:33:42;;;;;;;2.03;1.13;;;19.90;51.00;;;;;;4993465;28;20097;-57
2022/04/28 02:36:07;;;;;;;2.45;1.40;;;20.00;51.10;;;;;;4993185;28;20046;-57
2022/04/28 02:38:33;;;;;;;1.88;1.20;;;20.00;51.00;;;;;;4993934;28;20050;-57
2022/04/28 02:40:58;;;;;;;3.28;1.50;;;20.00;51.00;;;;;;4993747;28;20050;-57
2022/04/28 02:43:24;;;;;;;2.40;1.38;;;20.00;51.00;;;;;;4992850;28;20386;-57
2022/04/28 02:45:49;;;;;;;2.92;1.45;;;20.00;51.00;;;;;;4993425;28;20078;-56
2022/04/28 02:48:15;;;;;;;1.83;1.13;;;20.00;50.90;;;;;;4993846;28;20398;-57
2022/04/28 02:50:40;;;;;;;2.40;1.17;;;20.00;50.90;;;;;;4992563;28;20084;-57
2022/04/28 02:53:06;;;;;;;3.83;1.20;;;20.00;50.90;;;;;;4993594;28;20050;-56
2022/04/28 02:55:32;;;;;;;3.70;1.15;;;20.00;50.90;;;;;;4993492;28;20104;-56
2022/04/28 02:57:57;;;;;;;2.75;1.52;;;20.00;50.90;;;;;;4992552;28;20064;-56
2022/04/28 03:00:23;;;;;;;3.92;1.50;;;20.00;50.90;;;;;;4993733;28;20054;-57
2022/04/28 03:02:49;;;;;;;4.07;1.40;;;20.00;50.90;;;;;;4993316;28;20030;-56
2022/04/28 03:05:14;;;;;;;2.25;1.10;;;20.10;50.90;;;;;;4992698;28;20490;-56
2022/04/28 03:10:49;;;;;;;3.83;1.10;;;20.10;50.90;;;;;;4992382;28;20386;-56
2022/04/28 03:13:16;;;;;;;3.63;1.50;;;20.10;50.90;;;;;;4993619;28;20038;-56
2022/04/28 03:15:41;;;;;;;3.25;1.05;;;20.10;50.90;;;;;;4993408;28;20034;-56
2022/04/28 03:18:07;;;;;;;2.67;1.25;;;20.10;50.90;;;;;;4992441;28;20510;-57
2022/04/28 03:20:32;;;;;;;3.50;1.10;;;20.10;50.80;;;;;;4993070;28;20043;-56
2022/04/28 03:22:58;;;;;;;2.30;1.15;;;20.10;50.80;;;;;;4992440;28;20514;-57
2022/04/28 03:25:23;;;;;;;2.63;1.48;;;20.20;50.90;;;;;;4992616;28;20047;-56
2022/04/28 03:27:49;;;;;;;2.85;1.38;;;20.20;50.90;;;;;;4993177;28;20042;-57
2022/04/28 03:30:14;;;;;;;2.28;1.10;;;20.20;50.80;;;;;;4992880;28;20486;-57
2022/04/28 03:32:42;;;;;;;3.75;1.40;;;20.20;50.90;;;;;;4992096;28;20141;-56
2022/04/28 03:35:10;;;;;;;2.28;0.95;;;20.20;50.80;;;;;;4992994;28;20089;-56
2022/04/28 03:37:36;;;;;;;3.10;1.20;;;20.20;50.60;;;;;;4993048;28;20129;-56
2022/04/28 03:40:01;;;;;;;4.18;1.30;;;20.20;50.70;;;;;;4992189;28;20042;-57
2022/04/28 03:42:28;;;;;;;2.20;1.30;;;20.20;50.60;;;;;;4992972;28;20125;-56
2022/04/28 03:44:54;;;;;;;2.40;1.42;;;20.20;50.70;;;;;;4992713;28;20050;-57
2022/04/28 03:47:20;;;;;;;3.00;1.35;;;20.20;50.60;;;;;;4992496;28;20042;-57
2022/04/28 03:49:46;;;;;;;3.70;1.50;;;20.20;50.60;;;;;;4992413;28;20054;-57
2022/04/28 03:52:12;;;;;;;2.53;1.30;;;20.20;50.90;;;;;;4993163;28;20042;-57
2022/04/28 03:54:38;;;;;;;4.68;1.20;;;20.20;50.60;;;;;;4992201;28;20101;-57
2022/04/28 03:57:03;;;;;;;2.60;1.30;;;20.20;51.30;;;;;;4992819;28;20046;-56
2022/04/28 03:59:29;;;;;;;4.28;1.20;;;20.30;50.60;;;;;;4993128;28;20073;-57
2022/04/28 04:01:54;;;;;;;2.95;1.20;;;20.30;50.60;;;;;;4986223;28;20069;-56
2022/04/28 04:04:20;;;;;;;2.38;1.20;;;20.30;50.60;;;;;;4990286;28;20458;-57
2022/04/28 04:06:46;;;;;;;3.95;1.20;;;20.30;50.60;;;;;;4992069;28;20046;-57
2022/04/28 04:09:11;;;;;;;3.08;1.50;;;20.30;50.60;;;;;;4991811;28;20049;-56
2022/04/28 04:11:37;;;;;;;3.03;1.23;;;20.30;50.50;;;;;;4992432;28;20129;-56
2022/04/28 04:14:02;;;;;;;3.47;1.20;;;20.30;50.60;;;;;;4991990;28;20052;-57
2022/04/28 04:16:28;;;;;;;1.63;1.10;;;20.30;50.60;;;;;;4993183;28;20049;-57
2022/04/28 04:18:53;;;;;;;3.97;1.65;;;20.30;50.50;;;;;;4992307;28;20046;-56
2022/04/28 04:21:20;;;;;;;3.28;1.52;;;20.30;50.50;;;;;;4992038;28;20089;-57
2022/04/28 04:23:46;;;;;;;3.15;1.48;;;20.30;50.50;;;;;;4992511;28;20039;-56
2022/04/28 04:26:12;;;;;;;2.25;1.20;;;20.30;50.50;;;;;;4992898;28;20125;-57
2022/04/28 04:28:37;;;;;;;2.95;1.48;;;20.30;50.40;;;;;;4991907;28;20141;-56
2022/04/28 04:33:47;;;;;;;1.90;1.23;;;20.40;50.50;;;;;;4991991;28;20054;-57
2022/04/28 04:36:12;;;;;;;2.97;1.10;;;20.40;50.40;;;;;;4995622;28;20042;-57
2022/04/28 04:38:38;;;;;;;3.22;1.25;;;20.30;50.40;;;;;;4995978;28;20045;-57
2022/04/28 04:41:05;;;;;;;3.03;1.38;;;20.40;50.50;;;;;;4995965;28;20054;-57
2022/04/28 04:43:30;;;;;;;3.65;1.20;;;20.40;50.50;;;;;;4995320;28;20065;-57
2022/04/28 04:45:56;;;;;;;3.35;1.73;;;20.40;50.50;;;;;;4995570;28;20470;-56
2022/04/28 04:48:22;;;;;;;3.47;1.45;;;20.40;50.40;;;;;;4995676;28;20046;-56
2022/04/28 04:50:48;;;;;;;2.22;1.20;;;20.40;50.40;;;;;;4994679;28;20050;-56
2022/04/28 04:53:13;;;;;;;2.88;1.63;;;20.40;50.40;;;;;;4995801;28;20061;-57
2022/04/28 04:55:39;;;;;;;3.65;1.48;;;20.40;50.40;;;;;;4995508;28;20046;-57
2022/04/28 04:58:05;;;;;;;3.92;1.58;;;20.40;50.40;;;;;;4995010;28;20442;-56
2022/04/28 05:00:31;;;;;;;2.55;1.33;;;20.40;50.40;;;;;;4995919;28;20149;-56
2022/04/28 05:02:56;;;;;;;3.58;1.52;;;20.40;50.40;;;;;;4995404;28;20046;-56
2022/04/28 05:05:22;;;;;;;1.77;1.10;;;20.40;50.40;;;;;;4994963;28;20089;-56
2022/04/28 05:07:48;;;;;;;2.42;1.02;;;20.40;50.40;;;;;;4995067;28;20046;-57
2022/04/28 05:10:13;;;;;;;3.10;1.25;;;20.40;51.10;;;;;;4994571;28;20494;-56
2022/04/28 05:12:38;;;;;;;4.32;1.38;;;20.40;50.40;;;;;;4995054;28;20052;-56
2022/04/28 05:15:04;;;;;;;2.10;1.15;;;20.40;50.40;;;;;;4995516;28;20042;-56
2022/04/28 05:17:30;;;;;;;3.30;1.20;;;20.40;50.40;;;;;;4994723;28;20119;-57
2022/04/28 05:19:58;;;;;;;3.03;1.50;;;20.40;50.40;;;;;;4995221;28;20042;-57
2022/04/28 05:22:24;;;;;;;;;;;20.40;50.40;;;;;;4995748;28;20050;-56
2022/04/28 05:24:49;;;;;;;2.00;1.10;;;20.40;50.40;;;;;;4994294;28;19963;-57
2022/04/28 05:27:15;;;;;;;2.38;1.13;;;20.40;50.40;;;;;;4995389;28;20053;-57
2022/04/28 05:29:40;;;;;;;3.38;1.30;;;20.40;50.40;;;;;;4994834;28;20169;-57
2022/04/28 05:32:06;;;;;;;2.72;1.30;;;20.40;50.40;;;;;;4993806;28;20042;-57
2022/04/28 05:34:32;;;;;;;1.75;1.00;;;20.40;50.40;;;;;;4995419;28;20109;-58
2022/04/28 05:36:57;;;;;;;2.92;1.27;;;20.40;50.40;;;;;;4994480;28;20510;-57
2022/04/28 05:39:23;;;;;;;2.80;1.20;;;20.40;50.40;;;;;;5009398;28;20046;-57
2022/04/28 05:41:48;;;;;;;2.85;1.20;;;20.50;50.50;;;;;;4994916;28;20058;-57
2022/04/28 05:46:58;;;;;;;2.90;1.10;;;20.50;50.50;;;;;;5006620;28;20046;-58
2022/04/28 05:49:23;;;;;;;2.88;1.13;;;20.50;50.50;;;;;;4994871;28;20137;-57
2022/04/28 05:51:49;;;;;;;2.63;1.40;;;20.50;50.60;;;;;;4994506;28;20379;-58
2022/04/28 05:54:15;;;;;;;3.28;1.33;;;20.50;50.60;;;;;;4994000;28;20066;-57
2022/04/28 05:56:42;;;;;;;2.78;1.00;;;20.50;50.60;;;;;;4994521;28;20046;-57
2022/04/28 05:59:09;;;;;;;2.60;1.10;;;20.50;50.70;;;;;;4994683;28;20042;-57
2022/04/28 06:01:35;;;;;;;4.37;1.20;;;20.50;50.70;;;;;;4994018;28;20117;-57
2022/04/28 06:04:00;;;;;;;2.83;1.20;;;20.60;50.80;;;;;;4994469;28;20581;-57
2022/04/28 06:06:26;;;;;;;1.90;0.90;;;20.60;50.80;;;;;;4993638;28;20046;-57
2022/04/28 06:08:51;;;;;;;5.47;1.40;;;20.60;50.80;;;;;;4994166;28;20043;-57
2022/04/28 06:11:17;;;;;;;2.92;1.33;;;20.60;50.90;;;;;;4994425;28;20042;-57
2022/04/28 06:13:43;;;;;;;3.33;1.00;;;20.60;50.90;;;;;;4993413;28;20784;-57
2022/04/28 06:16:09;;;;;;;2.75;1.45;;;20.60;51.00;;;;;;4994462;28;20050;-57
2022/04/28 06:18:34;;;;;;;2.53;1.30;;;20.60;51.00;;;;;;4994417;28;20050;-57
2022/04/28 06:21:00;;;;;;;3.13;1.20;;;20.60;51.20;;;;;;4993094;28;20038;-57
2022/04/28 06:23:25;;;;;;;3.95;1.38;;;20.70;51.20;;;;;;4986044;28;20084;-56
2022/04/28 06:25:51;;;;;;;2.60;0.95;;;20.70;51.30;;;;;;4984514;28;20047;-57
2022/04/28 06:28:17;;;;;;;3.88;1.30;;;20.70;51.30;;;;;;4982098;28;20043;-57
2022/04/28 06:30:43;;;;;;;4.63;1.48;;;20.70;51.40;;;;;;4983966;28;20050;-56
2022/04/28 06:33:08;;;;;;;4.18;1.30;;;20.70;51.60;;;;;;4984578;28;20046;-56
2022/04/28 06:35:35;;;;;;;3.13;1.25;;;20.70;51.80;;;;;;4982751;28;20135;-57
2022/04/28 06:38:01;;;;;;;2.00;1.20;;;20.70;51.90;;;;;;4982979;28;20048;-57
2022/04/28 06:40:26;;;;;;;3.80;1.10;;;20.70;52.00;;;;;;4988604;28;20054;-57
2022/04/28 06:42:52;;;;;;;3.92;1.40;;;20.80;52.20;;;;;;4992447;28;20046;-56
2022/04/28 06:45:18;;;;;;;2.95;1.45;;;20.80;52.30;;;;;;4993941;28;20045;-57
2022/04/28 06:47:43;;;;;;;3.53;1.70;;;20.80;52.40;;;;;;4993473;28;20078;-57
2022/04/28 06:50:09;;;;;;;4.35;1.23;;;20.80;52.60;;;;;;4993023;28;20133;-57
2022/04/28 06:52:36;;;;;;;5.47;1.50;;;20.80;52.70;;;;;;4993611;28;20058;-57
2022/04/28 06:55:02;;;;;;;3.83;1.20;;;20.80;52.70;;;;;;4993180;28;20494;-57
2022/04/28 06:57:28;;;;;;;3.42;1.20;;;20.90;52.70;;;;;;4992220;28;20042;-57
2022/04/28 06:59:53;;;;;;;2.85;1.13;;;20.90;52.80;;;;;;4993028;28;20486;-57
2022/04/28 07:02:20;;;;;;;2.97;1.20;;;20.90;52.80;;;;;;4993619;28;20051;-57
2022/04/28 07:04:46;;;;;;;3.00;1.27;;;20.90;52.90;;;;;;4992483;28;20048;-57
2022/04/28 07:07:11;;;;;;;4.55;1.20;;;20.90;52.90;;;;;;4993552;28;20058;-56
2022/04/28 07:09:37;;;;;;;4.20;1.15;;;20.90;52.90;;;;;;4993409;28;20491;-56
2022/04/28 07:12:03;;;;;;;6.70;1.35;;;21.00;52.90;;;;;;4991940;28;20050;-56
2022/04/28 07:14:29;;;;;;;6.30;1.48;;;21.00;52.90;;;;;;4993483;28;20474;-57
2022/04/28 07:16:54;;;;;;;3.45;1.20;;;21.00;52.90;;;;;;4992081;28;20449;-57
2022/04/28 07:19:20;;;;;;;3.40;1.17;;;21.00;53.00;;;;;;4993210;28;20097;-56
2022/04/28 07:21:45;;;;;;;2.92;1.13;;;21.00;53.00;;;;;;4992955;28;20125;-57
2022/04/28 07:24:11;;;;;;;2.20;1.30;;;21.00;53.10;;;;;;4992252;28;20043;-57
2022/04/28 07:26:37;;;;;;;4.47;1.27;;;21.10;53.10;;;;;;4993290;28;20053;-56
2022/04/28 07:29:05;;;;;;;5.38;1.42;;;21.10;53.00;;;;;;4992981;28;20077;-57
2022/04/28 07:31:30;;;;;;;2.17;1.20;;;21.10;53.00;;;;;;4992522;28;20081;-57
2022/04/28 07:33:56;;;;;;;3.25;1.10;;;21.10;53.00;;;;;;4992263;28;20229;-56
2022/04/28 07:36:21;;;;;;;1.85;0.98;;;21.10;53.00;;;;;;4983923;28;20056;-56
2022/04/28 07:38:47;;;;;;;3.40;1.30;;;21.20;53.10;;;;;;4981698;28;20035;-56
2022/04/28 07:41:14;;;;;;;2.85;1.05;;;21.20;53.20;;;;;;4991384;28;20066;-56
2022/04/28 07:43:39;;;;;;;2.55;0.80;;;21.20;53.20;;;;;;4992731;28;20042;-56
2022/04/28 07:46:05;;;;;;;3.50;1.00;;;21.20;53.20;;;;;;4992076;28;20050;-56
2022/04/28 07:48:30;;;;;;;2.50;0.93;;;21.20;53.10;;;;;;4992832;28;20050;-57
2022/04/28 07:50:56;;;;;;;2.47;1.00;;;21.20;53.10;;;;;;4992571;28;20042;-57
2022/04/28 07:53:22;;;;;;;3.15;1.13;;;21.20;53.10;;;;;;4992226;28;20049;-57
2022/04/28 07:58:32;;;;;;;1.30;0.88;;;21.30;53.10;;;;;;4992987;28;20042;-57
2022/04/28 08:00:58;;;;;;;1.65;0.73;;;21.30;53.10;;;;;;4991744;28;20038;-57
2022/04/28 08:03:24;;;;;;;3.92;1.20;;;21.30;53.00;;;;;;4992774;28;20046;-56
2022/04/28 08:05:50;;;;;;;2.08;0.98;;;21.40;53.00;;;;;;4992692;28;20128;-57
2022/04/28 08:08:15;;;;;;;4.10;1.48;;;21.40;53.10;;;;;;4992010;28;20046;-57
2022/04/28 08:10:41;;;;;;;3.50;1.20;;;21.40;53.00;;;;;;4985292;28;20074;-57
2022/04/28 08:13:06;;;;;;;3.80;1.35;;;21.40;53.00;;;;;;4995429;28;20535;-57
2022/04/28 08:15:32;;;;;;;1.60;1.00;;;21.40;53.00;;;;;;4996639;28;20042;-60
2022/04/28 08:17:57;;;;;;;4.93;1.17;;;21.50;52.90;;;;;;4996267;28;20057;-57
2022/04/28 08:20:23;;;;;;;1.55;0.93;;;21.50;52.90;;;;;;4995788;28;20042;-57
2022/04/28 08:22:48;;;;;;;4.38;1.40;;;21.50;52.90;;;;;;4996121;28;20485;-57
2022/04/28 08:25:14;;;;;;;3.50;0.90;;;21.50;53.00;;;;;;4992861;28;20078;-57
2022/04/28 08:27:39;;;;;;;6.15;1.30;;;21.40;52.90;;;;;;4988778;28;20046;-57
2022/04/28 08:30:05;;;;;;;5.45;1.40;;;21.50;53.00;;;;;;4996386;28;20150;-57
2022/04/28 08:32:31;;;;;;;6.45;1.50;;;21.50;52.90;;;;;;4996144;28;20069;-57
2022/04/28 08:34:56;;;;;;;6.20;1.60;;;21.50;52.60;;;;;;4995285;28;20121;-57
2022/04/28 08:37:23;;;;;;;5.22;1.88;;;21.50;52.50;;;;;;4995743;28;20364;-57
2022/04/28 08:39:48;;;;;;;8.38;1.50;;;21.50;52.40;;;;;;4979128;28;20473;-57
2022/04/28 08:42:15;;;;;;;6.63;1.58;;;21.40;52.40;;;;;;4984528;28;20046;-58
2022/04/28 08:44:41;;;;;;;6.90;1.67;;;21.50;52.50;;;;;;4992866;28;20129;-57
2022/04/28 08:47:06;;;;;;;5.93;1.48;;;21.40;52.60;;;;;;4959265;28;20137;-57
2022/04/28 08:49:32;;;;;;;7.70;1.83;;;21.50;52.60;;;;;;4974429;28;20070;-57
2022/04/28 08:51:58;;;;;;;7.63;1.77;;;21.50;52.50;;;;;;4975986;28;20046;-57
2022/04/28 08:54:25;;;;;;;4.10;1.38;;;21.40;52.10;;;;;;4976019;28;20071;-57
2022/04/28 08:56:52;;;;;;;7.20;1.75;;;21.50;51.90;;;;;;4975450;28;20097;-57
2022/04/28 08:59:19;;;;;;;5.97;2.25;;;21.50;51.90;;;;;;4976362;28;20089;-57
2022/04/28 09:01:44;;;;;;;5.00;1.33;;;21.40;51.90;;;;;;4975899;28;20533;-56
2022/04/28 09:04:10;;;;;;;5.70;1.60;;;21.50;52.00;;;;;;4975290;28;20125;-57
2022/04/28 09:06:36;;;;;;;4.47;1.58;;;21.40;51.90;;;;;;4975960;28;20050;-57
2022/04/28 09:09:09;;;;;;;7.03;1.70;;;21.40;52.00;;;;;;4975885;28;20051;-57
2022/04/28 09:11:37;;;;;;;4.28;1.48;;;21.40;51.90;;;;;;4975309;28;20058;-57
2022/04/28 09:14:09;;;;;;;5.90;1.42;;;21.40;51.90;;;;;;4976061;28;20066;-57
2022/04/28 09:16:46;;;;;;;6.80;1.95;;;21.40;52.00;;;;;;4975173;28;20097;-57
2022/04/28 09:19:23;;;;;;;10.00;2.40;;;21.40;51.90;;;;;;4975864;28;20047;-57
2022/04/28 09:21:50;;;;;;;4.22;1.50;;;21.40;51.90;;;;;;4975268;28;20105;-57
2022/04/28 09:24:16;;;;;;;6.13;1.98;;;21.40;52.00;;;;;;4975217;28;20041;-57
2022/04/28 09:26:41;;;;;;;4.00;1.50;;;21.40;52.00;;;;;;4975528;28;20043;-57
2022/04/28 09:29:13;;;;;;;4.55;1.63;;;21.40;52.00;;;;;;4975806;28;20098;-57
2022/04/28 09:31:41;;;;;;;5.00;1.75;;;21.40;52.00;;;;;;4974767;28;20047;-56
2022/04/28 09:34:08;;;;;;;5.03;2.13;;;21.40;52.00;;;;;;4975685;28;20046;-57
2022/04/28 09:36:34;;;;;;;6.20;1.90;;;21.40;52.10;;;;;;4975913;28;20054;-57
2022/04/28 09:38:59;;;;;;;5.97;1.52;;;21.40;52.00;;;;;;4974461;28;20042;-57
2022/04/28 09:44:12;;;;;;;6.60;1.55;;;21.40;52.00;;;;;;4975626;28;20133;-57
2022/04/28 09:46:41;;;;;;;3.30;1.48;;;21.40;52.00;;;;;;4973630;28;20046;-57
2022/04/28 09:49:08;;;;;;;5.80;1.58;;;21.40;52.00;;;;;;4975418;28;20388;-56
2022/04/28 09:51:35;;;;;;;4.35;1.58;;;21.50;52.80;;;;;;4974656;28;20051;-57
2022/04/28 09:54:00;;;;;;;5.13;1.40;;;21.50;52.10;;;;;;4973921;28;20047;-57
2022/04/28 09:56:34;;;;;;;4.57;1.50;;;21.50;52.00;;;;;;4974131;28;20084;-58
2022/04/28 09:58:59;;;;;;;4.50;1.35;;;21.40;52.00;;;;;;4973114;28;20047;-57
2022/04/28 10:01:25;;;;;;;6.43;1.48;;;21.40;51.90;;;;;;4979743;28;20066;-57
2022/04/28 10:03:51;;;;;;;7.25;1.80;;;21.40;51.70;;;;;;4982492;28;20070;-57
2022/04/28 10:06:16;;;;;;;5.57;1.83;;;21.40;51.60;;;;;;4988565;28;20128;-57
2022/04/28 10:08:42;;;;;;;7.63;1.80;;;21.50;51.70;;;;;;4992388;28;20467;-56
2022/04/28 10:11:09;;;;;;;6.30;1.17;;;21.50;51.80;;;;;;4976111;28;20069;-57
2022/04/28 10:13:34;;;;;;;7.20;1.83;;;21.50;51.90;;;;;;4992370;28;20096;-57
2022/04/28 10:16:02;;;;;;;4.68;1.58;;;21.50;52.00;;;;;;4992705;28;20449;-57
2022/04/28 10:18:33;;;;;;;6.43;1.63;;;21.50;52.10;;;;;;4992888;28;20034;-56
2022/04/28 10:21:00;;;;;;;4.55;1.55;;;21.50;52.10;;;;;;4992758;28;20054;-56
2022/04/28 10:34:30;;;;;;;3.88;1.13;;;21.60;52.40;;;;;;4984192;28;20047;-57
2022/04/28 10:37:04;;;;;;;7.75;1.38;;;21.60;52.50;;;;;;4984078;28;20039;-57
2022/04/28 10:39:35;;;;;;;4.53;1.52;;;21.60;52.50;;;;;;4990972;28;20065;-57
2022/04/28 10:42:10;;;;;;;6.03;1.30;;;21.70;52.60;;;;;;4991845;28;20038;-57
2022/04/28 10:44:40;;;;;;;5.10;1.33;;;21.70;52.70;;;;;;4990177;28;20101;-57
2022/04/28 10:47:07;;;;;;;3.40;1.17;;;21.70;52.70;;;;;;4993035;28;20137;-57
2022/04/28 10:49:39;;;;;;;5.47;1.98;;;21.70;52.70;;;;;;4989713;28;20113;-57
2022/04/28 10:52:05;;;;;;;5.63;1.70;;;21.70;52.70;;;;;;4992335;28;20513;-57
2022/04/28 10:54:46;;;;;;;5.25;1.48;;;21.70;52.70;;;;;;4991807;28;20073;-57
2022/04/28 10:57:12;;;;;;;3.38;1.35;;;21.80;52.70;;;;;;4993625;28;20050;-57
2022/04/28 10:59:38;;;;;;;3.45;1.40;;;21.80;52.50;;;;;;4993766;28;20043;-57
2022/04/28 11:02:10;;;;;;;7.78;1.63;;;21.80;52.40;;;;;;4992819;28;20085;-57
2022/04/28 11:04:36;;;;;;;3.55;1.15;;;21.80;52.20;;;;;;4993720;28;20065;-57
2022/04/28 11:07:06;;;;;;;4.82;1.67;;;21.80;52.20;;;;;;4993215;28;20482;-57
2022/04/28 11:09:44;;;;;;;4.95;1.20;;;21.80;52.10;;;;;;4992604;28;20054;-57
2022/04/28 11:12:16;;;;;;;6.80;1.90;;;21.80;52.20;;;;;;4993492;28;20042;-57
2022/04/28 11:14:59;;;;;;;3.83;1.52;;;21.80;52.20;;;;;;4993032;28;20402;-57
2022/04/28 11:17:26;;;;;;;7.30;1.77;;;21.90;52.30;;;;;;4992583;28;20046;-58
2022/04/28 11:19:52;;;;;;;6.70;1.67;;;21.90;52.30;;;;;;4991465;28;20046;-58
2022/04/28 11:22:18;;;;;;;4.28;1.42;;;21.80;52.30;;;;;;4993205;28;20103;-57
2022/04/28 11:24:44;;;;;;;6.68;1.80;;;21.90;52.40;;;;;;4992281;28;20042;-58
2022/04/28 11:27:19;;;;;;;11.15;1.90;;;21.90;52.40;;;;;;4993411;28;20394;-57
2022/04/28 11:29:47;;;;;;;7.05;1.80;;;21.90;52.00;;;;;;4992792;28;20577;-57
2022/04/28 11:32:15;;;;;;;9.55;1.75;;;21.90;51.90;;;;;;4991517;28;20046;-58
2022/04/28 11:34:43;;;;;;;10.00;1.98;;;21.90;51.90;;;;;;4992979;28;20042;-57
2022/04/28 11:37:19;;;;;;;5.93;1.80;;;21.90;51.90;;;;;;4990990;28;20050;-57
2022/04/28 11:39:45;;;;;;;11.32;2.13;;;21.90;51.70;;;;;;4992851;28;20096;-57
2022/04/28 11:42:12;;;;;;;8.45;2.15;;;21.80;51.50;;;;;;4992931;28;20398;-57
2022/04/28 11:44:51;;;;;;;14.32;2.40;;;21.90;51.50;;;;;;4995159;28;20508;-57
2022/04/28 11:47:18;;;;;;;12.75;1.58;;;21.90;51.50;;;;;;4996949;28;20467;-57
2022/04/28 11:49:43;;;;;;;9.48;2.10;;;21.90;51.60;;;;;;4996946;28;20088;-57
2022/04/28 11:52:19;;;;;;;15.20;1.95;;;21.90;51.60;;;;;;4996333;28;20090;-57
2022/04/28 11:54:48;;;;;;;11.65;1.77;;;21.80;51.60;;;;;;4996804;28;20122;-57
2022/04/28 11:57:14;;;;;;;9.35;1.85;;;21.90;51.70;;;;;;4979903;28;20081;-57
2022/04/28 11:59:40;;;;;;;7.40;2.13;;;21.90;51.60;;;;;;4995310;28;20084;-57
2022/04/28 12:02:21;;;;;;;7.93;1.95;;;21.90;51.60;;;;;;4996594;28;20069;-57
2022/04/28 12:04:47;;;;;;;11.98;2.30;;;21.90;51.10;;;;;;4996564;28;20105;-57
2022/04/28 12:07:20;;;;;;;7.55;1.77;;;21.90;50.30;;;;;;4995820;28;20490;-57
2022/04/28 12:15:14;;;;;;;9.18;1.60;;;21.90;49.50;;;;;;4995586;28;20050;-58
2022/04/28 12:20:57;;;;;;;9.10;1.63;;;21.90;49.60;;;;;;4995464;28;20046;-58
2022/04/28 12:23:39;;;;;;;7.43;1.20;;;21.90;49.70;;;;;;4996502;28;20050;-58
2022/04/28 12:26:07;;;;;;;6.90;1.40;;;21.90;49.80;;;;;;4996162;28;20050;-58
2022/04/28 12:28:33;;;;;;;8.48;1.95;;;21.90;49.80;;;;;;4995403;28;20046;-58
2022/04/28 12:31:00;;;;;;;7.93;1.50;;;21.90;50.60;;;;;;4996117;28;20082;-57
2022/04/28 12:33:27;;;;;;;6.68;1.13;;;21.90;50.00;;;;;;4993811;28;20058;-58
2022/04/28 12:35:53;;;;;;;6.20;2.10;;;21.90;50.00;;;;;;4995945;28;20092;-57
2022/04/28 12:38:26;;;;;;;8.30;1.20;;;21.90;50.10;;;;;;4978558;28;20184;-57
2022/04/28 12:40:52;;;;;;;7.68;1.40;;;21.90;50.10;;;;;;4995426;28;20038;-57
2022/04/28 12:43:36;;;;;;;7.43;1.50;;;21.90;50.20;;;;;;4995023;28;20073;-58
2022/04/28 12:46:02;;;;;;;6.07;1.73;;;21.90;50.20;;;;;;4995910;28;20057;-57
2022/04/28 12:48:30;;;;;;;5.28;1.40;;;21.90;50.30;;;;;;4995524;28;20042;-57
2022/04/28 12:51:15;;;;;;;5.47;1.13;;;21.80;50.20;;;;;;4995353;28;20413;-59
2022/04/28 12:53:46;;;;;;;5.68;1.38;;;21.90;50.20;;;;;;4995562;28;20065;-58
2022/04/28 12:56:13;;;;;;;4.40;1.10;;;21.80;50.10;;;;;;4994084;28;20070;-57
2022/04/28 12:58:47;;;;;;;5.43;1.38;;;21.80;50.10;;;;;;4995584;28;20046;-58
2022/04/28 13:01:18;;;;;;;4.55;1.42;;;21.90;50.20;;;;;;4995972;28;20050;-57
2022/04/28 13:03:57;;;;;;;7.00;1.40;;;21.90;50.30;;;;;;4995036;28;20046;-57
2022/04/28 13:06:27;;;;;;;7.55;1.48;;;21.90;50.30;;;;;;4990344;28;20047;-57
2022/04/28 13:08:53;;;;;;;5.05;1.23;;;21.90;50.40;;;;;;4985058;28;20406;-57
2022/04/28 13:11:24;;;;;;;6.25;1.25;;;21.90;50.40;;;;;;4983643;28;20050;-57
2022/04/28 13:13:50;;;;;;;5.07;1.20;;;21.90;50.50;;;;;;4975974;28;20043;-57
2022/04/28 13:16:17;;;;;;;3.05;1.02;;;21.90;50.50;;;;;;4975313;28;20521;-57
2022/04/28 13:18:42;;;;;;;8.20;1.52;;;21.90;50.40;;;;;;4975295;28;20043;-58
2022/04/28 13:21:10;;;;;;;2.70;1.10;;;21.90;50.40;;;;;;4975990;28;20461;-58
2022/04/28 13:23:35;;;;;;;4.47;1.20;;;21.90;50.40;;;;;;4974844;28;20121;-59
2022/04/28 13:26:01;;;;;;;4.93;1.30;;;22.00;50.40;;;;;;4975814;28;20129;-58
2022/04/28 13:28:26;;;;;;;3.63;1.25;;;22.00;50.40;;;;;;4975644;28;20063;-55